Time;durP1;ratioP1;P1;durP2;ratioP2;P2;SDS_P1;SDS_P2;PMS_P1;PMS_P2;Temp;Humidity;BMP_temperature;BMP_pressure;BME280_temperature;BME280_humidity;BME280_pressure;Samples;Min_cycle;Max_cycle;Signal;HPM_P1;HPM_P2
2022/11/19 00:02:49;;;;;;;19.50;10.27;;;-0.10;99.90;;;;;;6310692;22;20049;-91
2022/11/19 00:05:40;;;;;;;17.10;9.80;;;-0.50;99.90;;;;;;6137791;23;20022;-92
2022/11/19 00:08:24;;;;;;;18.73;9.67;;;-0.90;99.90;;;;;;6103814;23;20058;-91
2022/11/19 00:14:41;;;;;;;18.20;9.37;;;-0.90;99.90;;;;;;6104492;23;20411;-92
2022/11/19 00:17:27;;;;;;;16.80;9.10;;;1.00;99.90;;;;;;6096253;23;20057;-91
2022/11/19 00:20:11;;;;;;;17.23;9.03;;;0.00;99.90;;;;;;6104749;23;20018;-91
2022/11/19 00:22:37;;;;;;;17.73;9.57;;;1.20;99.90;;;;;;6129220;23;20057;-92
2022/11/19 00:25:15;;;;;;;16.17;8.43;;;-0.10;99.90;;;;;;6103950;23;20018;-92
2022/11/19 00:27:56;;;;;;;17.87;8.57;;;-0.10;99.90;;;;;;6228828;22;20049;-92
2022/11/19 00:30:34;;;;;;;14.90;8.03;;;-0.50;99.90;;;;;;6285151;22;20067;-92
2022/11/19 00:33:15;;;;;;;14.63;7.23;;;-0.10;99.90;;;;;;6285584;22;20019;-92
2022/11/19 00:36:07;;;;;;;14.07;7.33;;;-0.50;99.90;;;;;;6286359;22;20038;-91
2022/11/19 00:38:48;;;;;;;14.70;7.07;;;-1.00;99.90;;;;;;6293176;22;20025;-90
2022/11/19 00:41:22;;;;;;;13.77;7.43;;;0.30;99.90;;;;;;6315964;22;20011;-91
2022/11/19 00:44:09;;;;;;;;;;;-0.30;99.90;;;;;;6286042;22;20099;-92
2022/11/19 00:46:55;;;;;;;13.50;6.20;;;-0.10;99.90;;;;;;6286097;22;19955;-92
2022/11/19 00:49:20;;;;;;;12.90;6.10;;;-0.30;99.90;;;;;;6315898;22;20041;-93
2022/11/19 00:52:02;;;;;;;13.17;6.27;;;-0.10;99.90;;;;;;6319269;22;20007;-92
2022/11/19 00:54:43;;;;;;;13.27;5.83;;;-0.40;99.90;;;;;;6337159;22;20054;-92
2022/11/19 00:57:27;;;;;;;12.20;5.83;;;-0.70;99.90;;;;;;6334173;22;20015;-92
2022/11/19 01:00:06;;;;;;;12.00;5.97;;;-0.60;99.90;;;;;;6296214;22;20030;-93
2022/11/19 01:02:53;;;;;;;10.93;4.93;;;-0.40;99.90;;;;;;6290444;22;20019;-92
2022/11/19 01:05:28;;;;;;;11.27;5.33;;;-0.40;99.90;;;;;;6262158;22;20019;-93
2022/11/19 01:08:09;;;;;;;11.73;5.57;;;1.60;99.90;;;;;;6286497;22;20015;-93
2022/11/19 01:10:50;;;;;;;12.37;5.63;;;-0.70;99.90;;;;;;6286608;22;20027;-93
2022/11/19 01:16:20;;;;;;;12.60;5.60;;;-0.50;99.90;;;;;;6297551;22;20022;-93
2022/11/19 01:19:02;;;;;;;12.10;5.50;;;-0.40;99.90;;;;;;6284658;22;20020;-93
2022/11/19 01:21:35;;;;;;;14.93;5.67;;;-0.90;99.90;;;;;;6311245;22;20043;-92
2022/11/19 01:24:22;;;;;;;11.53;5.30;;;-0.90;99.90;;;;;;6283132;22;20072;-93
2022/11/19 01:27:07;;;;;;;;;;;-0.80;99.90;;;;;;6309593;22;20015;-92
2022/11/19 01:29:33;;;;;;;;;;;-0.60;99.90;;;;;;6310104;22;19940;-93
2022/11/19 01:32:08;;;;;;;12.67;5.33;;;0.20;99.90;;;;;;6308305;22;19989;-93
2022/11/19 01:34:56;;;;;;;12.73;5.40;;;-0.60;99.90;;;;;;6308769;22;20015;-93
2022/11/19 01:37:43;;;;;;;11.90;5.30;;;-1.10;99.90;;;;;;6309191;22;20125;-92
2022/11/19 01:40:28;;;;;;;12.83;5.60;;;-0.30;99.90;;;;;;6279767;22;20011;-93
2022/11/19 01:42:53;;;;;;;11.77;5.53;;;0.30;99.90;;;;;;6308936;22;20351;-93
2022/11/19 01:45:33;;;;;;;10.77;5.13;;;-1.10;99.90;;;;;;6281281;22;20011;-93
2022/11/19 01:48:21;;;;;;;11.37;4.87;;;-1.00;99.90;;;;;;6308212;22;20096;-92
2022/11/19 01:51:03;;;;;;;11.20;5.10;;;0.30;99.90;;;;;;6298415;22;20011;-92
2022/11/19 01:53:52;;;;;;;12.40;5.80;;;0.30;99.90;;;;;;6308645;22;20097;-92
2022/11/19 01:56:36;;;;;;;10.00;4.80;;;-0.50;99.90;;;;;;6283012;22;20338;-92
2022/11/19 01:59:25;;;;;;;13.68;5.65;;;0.20;99.90;;;;;;6280889;22;20054;-93
2022/11/19 02:02:09;;;;;;;12.07;5.20;;;0.40;99.90;;;;;;6308493;22;20076;-93
2022/11/19 02:04:53;;;;;;;12.20;5.60;;;-1.10;99.90;;;;;;6309666;22;20439;-92
2022/11/19 02:07:30;;;;;;;;;;;;;;;;;;;;;
2022/11/19 02:10:53;;;;;;;12.17;5.57;;;-1.00;99.90;;;;;;6220465;22;20017;-93
2022/11/19 02:14:34;;;;;;;10.77;5.00;;;-1.10;99.90;;;;;;6224561;22;20011;-92
2022/11/19 02:17:52;;;;;;;11.67;5.53;;;-1.50;99.90;;;;;;6190412;22;20020;-91
2022/11/19 02:20:45;;;;;;;12.37;5.27;;;-0.80;99.90;;;;;;6308492;22;20069;-91
2022/11/19 02:23:59;;;;;;;11.43;5.20;;;-1.10;99.90;;;;;;6280223;22;20482;-92
2022/11/19 02:27:14;;;;;;;12.13;5.17;;;-2.10;99.90;;;;;;6294599;22;20019;-91
2022/11/19 02:30:21;;;;;;;11.87;5.60;;;-1.20;99.90;;;;;;6307784;22;20019;-91
2022/11/19 07:31:06;;;;;;;18.10;8.30;;;-2.40;99.90;;;;;;6263982;22;20643;31
2022/11/19 08:15:04;;;;;;;;;;;;;;;;;;;;;
2022/11/19 08:22:23;;;;;;;;;;;;;;;;;;;;;
2022/11/19 08:51:13;;;;;;;16.83;7.87;;;-1.60;99.90;;;;;;6310755;22;20394;-88
2022/11/19 08:53:57;;;;;;;17.13;8.33;;;-1.50;99.90;;;;;;6280298;22;20022;-86
2022/11/19 08:56:38;;;;;;;17.20;8.55;;;-2.10;99.90;;;;;;6306781;22;20007;-87
2022/11/19 08:59:25;;;;;;;16.70;8.47;;;-2.20;99.90;;;;;;6308283;22;20016;-88
2022/11/19 09:10:24;;;;;;;16.70;8.50;;;-1.00;99.90;;;;;;6156114;23;20553;-88
2022/11/19 09:13:34;;;;;;;15.73;8.00;;;-1.50;99.90;;;;;;6157313;23;20023;-89
2022/11/19 09:36:58;;;;;;;17.43;8.43;;;-1.40;99.90;;;;;;6278486;22;20160;-88
2022/11/19 10:06:48;;;;;;;19.07;8.50;;;0.70;99.90;;;;;;6272777;22;20070;-86
2022/11/19 10:10:37;;;;;;;;;;;;;;;;;;;;;
2022/11/19 10:39:55;;;;;;;13.90;7.33;;;0.50;99.90;;;;;;6309336;22;20069;-87
2022/11/19 10:42:38;;;;;;;15.10;7.38;;;0.00;99.90;;;;;;6309328;22;20069;-86
2022/11/19 10:45:25;;;;;;;12.95;6.70;;;0.90;99.90;;;;;;6310825;22;20023;-86
2022/11/19 10:48:19;;;;;;;13.17;6.77;;;2.30;99.90;;;;;;6279882;22;20019;-85
2022/11/19 10:50:49;;;;;;;13.57;7.28;;;0.90;99.90;;;;;;6280182;22;20015;-87
2022/11/19 10:53:32;;;;;;;13.57;7.13;;;1.60;99.90;;;;;;6308086;22;20090;-86
2022/11/19 10:56:18;;;;;;;14.03;7.13;;;3.30;99.90;;;;;;6279270;22;20015;-86
2022/11/19 10:58:57;;;;;;;15.07;7.63;;;1.30;99.90;;;;;;6279863;22;20076;-86
2022/11/19 11:01:50;;;;;;;12.80;6.63;;;1.20;99.90;;;;;;6280369;22;20025;-86
2022/11/19 11:04:52;;;;;;;14.10;7.10;;;1.60;99.90;;;;;;6308044;22;20062;-86
2022/11/19 11:07:21;;;;;;;13.20;6.67;;;3.50;99.90;;;;;;6279005;22;20101;-86
2022/11/19 11:09:47;;;;;;;12.83;6.83;;;2.60;99.90;;;;;;6279046;22;20022;-86
2022/11/19 11:15:24;;;;;;;13.23;6.80;;;1.90;99.90;;;;;;6279873;22;20019;-85
2022/11/19 11:18:08;;;;;;;12.53;6.47;;;1.90;99.90;;;;;;6279048;22;20352;-86
2022/11/19 11:20:35;;;;;;;;;;;1.70;99.90;;;;;;6279647;22;20016;-85
2022/11/19 11:23:44;;;;;;;12.27;6.13;;;2.80;99.90;;;;;;6279096;22;19961;-85
2022/11/19 11:26:40;;;;;;;12.87;6.53;;;2.20;99.90;;;;;;6289317;22;20023;-86
2022/11/19 11:29:12;;;;;;;11.53;5.80;;;2.00;99.90;;;;;;6310132;22;20004;-86
2022/11/19 11:31:46;;;;;;;12.97;6.03;;;1.90;99.90;;;;;;6310033;22;20050;-86
2022/11/19 11:34:33;;;;;;;;;;;2.10;99.90;;;;;;6307115;22;20408;-86
2022/11/19 11:37:02;;;;;;;12.10;6.17;;;2.30;99.90;;;;;;6308650;22;19922;-86
2022/11/19 11:39:58;;;;;;;11.57;5.73;;;3.40;99.90;;;;;;6283754;22;20023;-86
2022/11/19 11:42:27;;;;;;;11.23;5.97;;;2.60;99.90;;;;;;6275996;22;20026;-86
2022/11/19 11:44:54;;;;;;;11.40;5.70;;;2.60;99.90;;;;;;6281013;22;20474;-86
2022/11/19 11:47:34;;;;;;;13.30;6.47;;;3.10;99.90;;;;;;6311435;22;20015;-86
2022/11/19 11:50:13;;;;;;;11.57;5.53;;;2.70;99.90;;;;;;6282484;22;20046;-87
2022/11/19 11:52:45;;;;;;;12.77;6.20;;;2.50;99.90;;;;;;6280611;22;20026;-85
2022/11/19 11:55:23;;;;;;;12.07;6.23;;;2.50;99.90;;;;;;6309395;22;20015;-84
2022/11/19 11:58:04;;;;;;;11.87;5.93;;;3.90;99.90;;;;;;6308934;22;20090;-84
2022/11/19 12:00:38;;;;;;;13.43;5.73;;;2.30;99.90;;;;;;6281400;22;20012;-84
2022/11/19 12:03:32;;;;;;;11.70;6.23;;;2.40;99.90;;;;;;6308970;22;20466;-85
2022/11/19 12:06:21;;;;;;;15.95;6.13;;;2.20;99.90;;;;;;6281100;22;20019;-84
2022/11/19 12:09:06;;;;;;;13.53;5.60;;;3.60;99.90;;;;;;6310213;22;20023;-84
2022/11/19 12:11:53;;;;;;;12.03;5.97;;;2.50;99.90;;;;;;6283061;22;20474;-84
2022/11/19 12:14:31;;;;;;;11.17;5.27;;;3.40;99.90;;;;;;6310813;22;20157;-86
2022/11/19 12:17:32;;;;;;;12.17;5.63;;;2.60;99.90;;;;;;6290271;22;20046;-84
2022/11/19 12:20:02;;;;;;;10.80;5.40;;;2.60;99.90;;;;;;6175662;22;20483;-85
2022/11/19 12:23:01;;;;;;;11.50;5.80;;;2.70;99.90;;;;;;6281998;22;20113;-84
2022/11/19 12:25:39;;;;;;;13.07;5.30;;;2.90;99.90;;;;;;6282202;22;20012;-85
2022/11/19 12:28:30;;;;;;;11.50;5.20;;;3.00;99.90;;;;;;6308630;22;20019;-85
2022/11/19 12:31:17;;;;;;;12.53;5.30;;;2.90;99.90;;;;;;6314815;22;20385;-85
2022/11/19 12:34:04;;;;;;;11.87;6.00;;;3.00;99.90;;;;;;6310003;22;20015;-85
2022/11/19 12:37:00;;;;;;;10.60;5.50;;;3.10;99.90;;;;;;6309520;22;20323;-89
2022/11/19 12:39:46;;;;;;;11.40;5.87;;;3.10;99.90;;;;;;6282104;22;20027;-86
2022/11/19 12:42:25;;;;;;;10.87;5.37;;;4.20;99.90;;;;;;6281747;22;20439;-89
2022/11/19 12:45:14;;;;;;;10.90;5.30;;;3.30;99.90;;;;;;6309173;22;20018;-87
2022/11/19 12:48:15;;;;;;;10.53;5.33;;;3.40;99.90;;;;;;6308049;22;20018;-85
2022/11/19 12:50:50;;;;;;;10.50;5.23;;;3.50;99.90;;;;;;6281614;22;20026;-85
2022/11/19 12:53:48;;;;;;;10.97;5.47;;;4.20;99.90;;;;;;6281882;22;20038;-84
2022/11/19 12:56:34;;;;;;;11.63;5.47;;;3.60;99.90;;;;;;6275230;22;20019;-86
2022/11/19 12:59:18;;;;;;;10.67;5.13;;;3.50;99.90;;;;;;6282886;22;20514;-84
2022/11/19 13:01:49;;;;;;;10.55;5.18;;;3.50;99.90;;;;;;6280570;22;20332;-84
2022/11/19 13:04:39;;;;;;;11.50;5.40;;;4.20;99.90;;;;;;6308764;22;20023;-84
2022/11/19 13:07:18;;;;;;;12.73;5.47;;;3.40;99.90;;;;;;6282241;22;20309;-84
2022/11/19 13:10:06;;;;;;;11.77;5.73;;;3.40;99.90;;;;;;6281832;22;20015;-84
2022/11/19 13:12:37;;;;;;;11.77;5.67;;;3.40;99.90;;;;;;6308809;22;20015;-83
2022/11/19 13:15:18;;;;;;;11.87;5.63;;;3.30;99.90;;;;;;6308930;22;20042;-84
2022/11/19 13:17:50;;;;;;;11.53;5.23;;;3.30;99.90;;;;;;6280608;22;20090;-84
2022/11/19 13:20:27;;;;;;;10.80;5.07;;;3.30;99.90;;;;;;6309910;22;20030;-83
2022/11/19 13:22:57;;;;;;;11.90;5.47;;;3.30;99.90;;;;;;6307945;22;20038;-83
2022/11/19 13:25:39;;;;;;;11.57;5.40;;;3.30;99.90;;;;;;6283234;22;20049;-84
2022/11/19 13:28:22;;;;;;;10.60;5.07;;;3.20;99.90;;;;;;6311358;22;20331;-84
2022/11/19 13:30:51;;;;;;;11.52;5.68;;;3.20;99.90;;;;;;6276076;22;20019;-84
2022/11/19 13:33:39;;;;;;;12.03;5.37;;;3.20;99.90;;;;;;6309919;22;20042;-84
2022/11/19 13:36:18;;;;;;;11.47;5.33;;;3.20;99.90;;;;;;6282435;22;20549;-85
2022/11/19 13:38:53;;;;;;;10.57;5.10;;;4.20;99.90;;;;;;6281203;22;20465;-85
2022/11/19 13:41:28;;;;;;;11.27;5.10;;;3.30;99.90;;;;;;6285500;22;20015;-85
2022/11/19 13:46:44;;;;;;;11.37;5.40;;;3.20;99.90;;;;;;6282621;22;20019;-85
2022/11/19 13:49:37;;;;;;;11.07;5.37;;;4.30;99.90;;;;;;6288412;22;20038;-86
2022/11/19 13:52:19;;;;;;;11.00;5.37;;;3.10;99.90;;;;;;6281286;22;20038;-85
2022/11/19 13:54:45;;;;;;;11.93;5.40;;;3.00;99.90;;;;;;6282545;22;20062;-86
2022/11/19 13:57:25;;;;;;;10.77;5.43;;;3.00;99.90;;;;;;6282848;22;20026;-86
2022/11/19 14:00:10;;;;;;;11.50;5.37;;;3.90;99.90;;;;;;6280501;22;20080;-86
2022/11/19 14:03:06;;;;;;;12.30;5.20;;;2.80;99.90;;;;;;6282474;22;20133;-86
2022/11/19 14:05:54;;;;;;;10.77;5.10;;;2.60;99.90;;;;;;6282928;22;20391;-86
2022/11/19 14:08:37;;;;;;;10.57;5.07;;;2.50;99.90;;;;;;6280947;22;20477;-86
2022/11/19 14:11:42;;;;;;;11.13;5.28;;;2.50;99.90;;;;;;6308347;22;20496;-85
2022/11/19 14:27:17;;;;;;;11.87;5.60;;;1.60;99.90;;;;;;6279720;22;20433;-86
2022/11/19 14:30:11;;;;;;;12.43;5.90;;;1.50;99.90;;;;;;6280326;22;20137;-86
2022/11/19 14:32:53;;;;;;;10.87;4.90;;;1.80;99.90;;;;;;6279375;22;20072;-86
2022/11/19 14:36:28;;;;;;;12.13;5.70;;;1.80;99.90;;;;;;6304995;22;20015;-88
2022/11/19 14:39:49;;;;;;;11.33;5.57;;;2.70;99.90;;;;;;6307129;22;20466;-85
2022/11/19 14:45:37;;;;;;;12.07;5.67;;;1.90;99.90;;;;;;6307415;22;20051;-85
2022/11/19 14:48:23;;;;;;;12.37;6.03;;;1.10;99.90;;;;;;6306978;22;20022;-85
2022/11/19 14:51:06;;;;;;;12.33;5.83;;;1.40;99.90;;;;;;6279153;22;20015;-85
2022/11/19 14:53:58;;;;;;;11.93;5.77;;;1.40;99.90;;;;;;6307767;22;20015;-85
2022/11/19 14:56:46;;;;;;;14.33;6.03;;;1.10;99.90;;;;;;6280416;22;20089;-88
2022/11/19 14:59:23;;;;;;;12.20;6.33;;;0.90;99.90;;;;;;6280459;22;20076;-89
2022/11/19 15:02:26;;;;;;;12.27;5.53;;;1.50;99.90;;;;;;6278507;22;20331;-86
2022/11/19 15:05:17;;;;;;;12.47;5.73;;;1.60;99.90;;;;;;6307519;22;20072;-86
2022/11/19 15:07:46;;;;;;;12.03;5.30;;;1.10;99.90;;;;;;6280186;22;20340;-85
2022/11/19 15:10:31;;;;;;;12.40;5.70;;;0.70;99.90;;;;;;6226554;22;20075;-86
2022/11/19 15:13:41;;;;;;;12.10;5.90;;;2.40;99.90;;;;;;6246531;23;20047;-86
2022/11/19 15:16:12;;;;;;;13.37;5.83;;;1.10;99.90;;;;;;6135477;23;20042;-86
2022/11/19 15:18:41;;;;;;;14.13;6.70;;;0.80;99.90;;;;;;6130293;23;20045;-85
2022/11/19 15:21:35;;;;;;;13.80;6.53;;;1.90;99.90;;;;;;6234698;23;20578;-85
2022/11/19 15:24:38;;;;;;;14.50;7.18;;;0.70;99.90;;;;;;6254779;22;20115;-85
2022/11/19 15:27:39;;;;;;;14.20;7.10;;;1.00;99.90;;;;;;6218625;23;20466;-85
2022/11/19 15:30:27;;;;;;;14.43;7.77;;;0.60;99.90;;;;;;6245292;23;20012;-85
2022/11/19 15:33:28;;;;;;;15.17;7.70;;;0.20;99.90;;;;;;6218312;23;20020;-86
2022/11/19 15:36:12;;;;;;;14.60;8.17;;;0.00;99.90;;;;;;6244737;23;20012;-86
2022/11/19 15:39:08;;;;;;;15.18;7.93;;;0.30;99.90;;;;;;6245195;23;20024;-86
2022/11/19 15:42:01;;;;;;;16.70;8.27;;;-0.30;99.90;;;;;;6245756;23;20067;-86
2022/11/19 15:44:38;;;;;;;15.53;8.30;;;0.60;99.90;;;;;;6217495;23;20020;-86
2022/11/19 15:47:24;;;;;;;18.57;8.50;;;-0.10;99.90;;;;;;6218409;23;20445;-86
2022/11/19 15:50:01;;;;;;;15.57;8.50;;;0.80;99.90;;;;;;6245252;23;20016;-85
2022/11/19 15:52:31;;;;;;;15.93;7.90;;;0.00;99.90;;;;;;6218295;23;20020;-86
2022/11/19 15:55:36;;;;;;;15.40;7.57;;;-0.50;99.90;;;;;;6220300;23;20486;-85
2022/11/19 15:58:25;;;;;;;14.87;7.20;;;-0.20;99.90;;;;;;6215542;23;20023;-89
2022/11/19 16:01:08;;;;;;;15.73;7.53;;;1.00;99.90;;;;;;6242602;23;20012;-87
2022/11/19 16:03:46;;;;;;;14.87;7.93;;;-0.10;99.90;;;;;;6244061;23;20071;-86
2022/11/19 16:06:34;;;;;;;14.53;7.47;;;-0.20;99.90;;;;;;6243298;23;20012;-86
2022/11/19 16:09:20;;;;;;;16.70;8.33;;;-0.70;99.90;;;;;;6216855;23;20474;-87
2022/11/19 16:18:19;;;;;;;42.13;23.67;;;-0.70;99.90;;;;;;6276679;22;20024;-87
2022/11/19 16:21:21;;;;;;;27.50;14.73;;;-1.00;99.90;;;;;;6251454;22;20479;-88
2022/11/19 16:26:47;;;;;;;21.67;15.33;;;-0.80;99.90;;;;;;6249073;22;20027;-88
2022/11/19 16:35:44;;;;;;;28.50;14.00;;;-1.10;99.90;;;;;;6206645;23;20025;-87
2022/11/19 16:38:40;;;;;;;35.53;16.53;;;-1.70;99.90;;;;;;6185210;23;20017;-87
2022/11/19 16:44:30;;;;;;;17.30;8.53;;;-1.80;99.90;;;;;;6208384;23;20024;-84
2022/11/19 16:47:24;;;;;;;18.07;10.47;;;-2.00;99.90;;;;;;6219229;22;20340;-85
2022/11/19 16:50:18;;;;;;;;;;;-1.20;99.90;;;;;;6254601;22;20020;-85
2022/11/19 16:52:50;;;;;;;20.60;11.57;;;-0.80;99.90;;;;;;6251394;22;19911;-85
2022/11/19 16:55:33;;;;;;;19.57;11.33;;;-1.30;99.90;;;;;;6253747;22;20490;-85
2022/11/19 16:58:26;;;;;;;19.03;11.43;;;-0.60;99.90;;;;;;6284387;22;20019;-85
2022/11/19 17:00:55;;;;;;;19.00;10.10;;;-0.80;99.90;;;;;;6249967;22;20447;-85
2022/11/19 17:03:34;;;;;;;18.70;9.57;;;-1.40;99.90;;;;;;6281785;22;20318;-86
2022/11/19 17:06:24;;;;;;;18.00;10.30;;;-0.80;99.90;;;;;;6255310;22;20019;-86
2022/11/19 17:09:31;;;;;;;19.40;11.53;;;-1.20;99.90;;;;;;6276756;22;20039;-88
2022/11/19 17:12:58;;;;;;;18.20;10.73;;;-1.20;99.90;;;;;;6071051;23;20102;-91
2022/11/19 17:22:27;;;;;;;19.50;10.33;;;-1.50;99.90;;;;;;6305719;22;20023;-91
2022/11/19 17:25:01;;;;;;;21.33;11.73;;;-2.20;99.90;;;;;;6307573;22;20042;-91
2022/11/19 17:27:53;;;;;;;21.33;11.90;;;-1.80;99.90;;;;;;6272724;22;20015;-91
